DTMB/MIR METAR and TAF weather

Enter ICAO airport designator
Station Type Date Time Source
DTMB METAR 2021/09/28 15:30 UTC NOAA

DTMB 281530Z 05010KT CAVOK 28/18 Q1017


Station Type Date Time Source
DTMB Decoded METAR 2021/09/28 15:30 UTC NOAA

Habib Bourguiba , Tunisia (DTMB) 35-46N 010-45E
Sep 28, 2021 - 11:30 AM EDT / 2021.09.28 1530 UTC
Wind: from the NE (050 degrees) at 12 MPH (10 KT):0
Visibility: greater than 7 mile(s):0
Temperature: 82 F (28 C)
Dew Point: 64 F (18 C)
Relative Humidity: 54%
Pressure (altimeter): 30.03 in. Hg (1017 hPa)
ob: DTMB 281530Z 05010KT CAVOK 28/18 Q1017
cycle: 15

Station Type Date Time Source
DTMB TAF 2021/09/28 12:33 UTC NOAA

TAF TAF DTMB 281100Z 2812/2912 36010KT 9999 FEW020
BECMG 2813/2815 04013KT
BECMG 2822/2824 34011KT

Example: see airport list